sensor_id;sensor_type;location;lat;lon;timestamp;temperature;humidity
71668;DHT22;59504;54.806;9.640;2023-05-10T00:01:54;12.90;50.50
71668;DHT22;59504;54.806;9.640;2023-05-10T00:04:15;12.90;50.50
71668;DHT22;59504;54.806;9.640;2023-05-10T00:06:36;12.90;50.50
71668;DHT22;59504;54.806;9.640;2023-05-10T00:08:57;12.90;50.60
71668;DHT22;59504;54.806;9.640;2023-05-10T00:11:20;12.80;50.90
71668;DHT22;59504;54.806;9.640;2023-05-10T00:13:41;12.70;50.60
71668;DHT22;59504;54.806;9.640;2023-05-10T00:16:01;12.80;50.60
71668;DHT22;59504;54.806;9.640;2023-05-10T00:18:22;12.70;50.70
71668;DHT22;59504;54.806;9.640;2023-05-10T00:20:42;12.60;51.90
71668;DHT22;59504;54.806;9.640;2023-05-10T00:23:03;12.60;51.30
71668;DHT22;59504;54.806;9.640;2023-05-10T00:25:24;12.50;51.10
71668;DHT22;59504;54.806;9.640;2023-05-10T00:27:25;12.50;51.40
71668;DHT22;59504;54.806;9.640;2023-05-10T00:29:26;12.50;51.10
71668;DHT22;59504;54.806;9.640;2023-05-10T00:31:28;12.40;50.90
71668;DHT22;59504;54.806;9.640;2023-05-10T00:33:49;12.40;52.00
71668;DHT22;59504;54.806;9.640;2023-05-10T00:35:50;12.30;51.30
71668;DHT22;59504;54.806;9.640;2023-05-10T00:38:10;12.30;51.60
71668;DHT22;59504;54.806;9.640;2023-05-10T00:40:37;12.20;51.40
71668;DHT22;59504;54.806;9.640;2023-05-10T00:42:58;12.10;51.50
71668;DHT22;59504;54.806;9.640;2023-05-10T00:45:23;12.10;51.70
71668;DHT22;59504;54.806;9.640;2023-05-10T00:47:45;12.00;51.60
71668;DHT22;59504;54.806;9.640;2023-05-10T00:50:08;12.00;51.40
71668;DHT22;59504;54.806;9.640;2023-05-10T00:52:25;11.90;51.40
71668;DHT22;59504;54.806;9.640;2023-05-10T00:54:32;11.90;52.20
71668;DHT22;59504;54.806;9.640;2023-05-10T00:56:46;11.80;52.00
71668;DHT22;59504;54.806;9.640;2023-05-10T00:58:49;11.80;52.90
71668;DHT22;59504;54.806;9.640;2023-05-10T01:01:05;11.70;52.30
71668;DHT22;59504;54.806;9.640;2023-05-10T01:03:06;11.70;52.10
71668;DHT22;59504;54.806;9.640;2023-05-10T01:05:07;11.70;52.00
71668;DHT22;59504;54.806;9.640;2023-05-10T01:07:07;11.60;53.00
71668;DHT22;59504;54.806;9.640;2023-05-10T01:09:08;11.60;53.00
71668;DHT22;59504;54.806;9.640;2023-05-10T01:11:10;11.50;52.50
71668;DHT22;59504;54.806;9.640;2023-05-10T01:13:10;11.50;52.60
71668;DHT22;59504;54.806;9.640;2023-05-10T01:15:11;11.50;52.50
71668;DHT22;59504;54.806;9.640;2023-05-10T01:17:20;11.40;52.60
71668;DHT22;59504;54.806;9.640;2023-05-10T01:19:25;11.40;52.70
71668;DHT22;59504;54.806;9.640;2023-05-10T01:21:42;11.30;52.70
71668;DHT22;59504;54.806;9.640;2023-05-10T01:26:13;11.30;53.10
71668;DHT22;59504;54.806;9.640;2023-05-10T01:35:08;11.10;54.10
71668;DHT22;59504;54.806;9.640;2023-05-10T01:37:15;11.00;53.60
71668;DHT22;59504;54.806;9.640;2023-05-10T01:39:21;11.00;53.60
71668;DHT22;59504;54.806;9.640;2023-05-10T01:43:30;11.00;54.00
71668;DHT22;59504;54.806;9.640;2023-05-10T01:45:41;10.90;53.80
71668;DHT22;59504;54.806;9.640;2023-05-10T01:47:46;10.90;53.40
71668;DHT22;59504;54.806;9.640;2023-05-10T01:49:52;10.90;54.50
71668;DHT22;59504;54.806;9.640;2023-05-10T01:51:57;10.90;54.00
71668;DHT22;59504;54.806;9.640;2023-05-10T01:54:02;10.80;53.80
71668;DHT22;59504;54.806;9.640;2023-05-10T01:56:22;10.80;54.00
71668;DHT22;59504;54.806;9.640;2023-05-10T01:58:28;10.80;55.00
71668;DHT22;59504;54.806;9.640;2023-05-10T02:00:43;10.70;54.50
71668;DHT22;59504;54.806;9.640;2023-05-10T02:03:07;10.70;54.80
71668;DHT22;59504;54.806;9.640;2023-05-10T02:05:09;10.60;56.20
71668;DHT22;59504;54.806;9.640;2023-05-10T02:07:30;10.60;56.10
71668;DHT22;59504;54.806;9.640;2023-05-10T02:09:57;10.60;56.10
71668;DHT22;59504;54.806;9.640;2023-05-10T02:12:02;10.60;56.40
71668;DHT22;59504;54.806;9.640;2023-05-10T02:14:24;10.50;56.60
71668;DHT22;59504;54.806;9.640;2023-05-10T02:16:48;10.60;56.20
71668;DHT22;59504;54.806;9.640;2023-05-10T02:19:14;10.50;56.80
71668;DHT22;59504;54.806;9.640;2023-05-10T02:21:35;10.50;56.50
71668;DHT22;59504;54.806;9.640;2023-05-10T02:23:46;10.50;56.00
71668;DHT22;59504;54.806;9.640;2023-05-10T02:26:09;10.50;56.50
71668;DHT22;59504;54.806;9.640;2023-05-10T02:28:30;10.40;57.80
71668;DHT22;59504;54.806;9.640;2023-05-10T02:30:52;10.40;58.80
71668;DHT22;59504;54.806;9.640;2023-05-10T02:33:14;10.40;59.40
71668;DHT22;59504;54.806;9.640;2023-05-10T02:35:34;10.30;59.00
71668;DHT22;59504;54.806;9.640;2023-05-10T02:38:03;10.40;59.50
71668;DHT22;59504;54.806;9.640;2023-05-10T02:40:24;10.30;59.10
71668;DHT22;59504;54.806;9.640;2023-05-10T02:42:46;10.30;59.00
71668;DHT22;59504;54.806;9.640;2023-05-10T02:45:09;10.30;58.70
71668;DHT22;59504;54.806;9.640;2023-05-10T02:47:31;10.20;58.90
71668;DHT22;59504;54.806;9.640;2023-05-10T02:49:55;10.20;58.60
71668;DHT22;59504;54.806;9.640;2023-05-10T02:52:19;10.20;58.10
71668;DHT22;59504;54.806;9.640;2023-05-10T02:54:44;10.20;58.00
71668;DHT22;59504;54.806;9.640;2023-05-10T02:57:05;10.20;57.80
71668;DHT22;59504;54.806;9.640;2023-05-10T02:59:26;10.20;57.80
71668;DHT22;59504;54.806;9.640;2023-05-10T03:01:47;10.10;58.20
71668;DHT22;59504;54.806;9.640;2023-05-10T03:04:10;10.10;58.70
71668;DHT22;59504;54.806;9.640;2023-05-10T03:06:33;10.10;60.60
71668;DHT22;59504;54.806;9.640;2023-05-10T03:08:54;10.10;61.00
71668;DHT22;59504;54.806;9.640;2023-05-10T03:11:37;10.00;60.60
71668;DHT22;59504;54.806;9.640;2023-05-10T03:16:27;10.00;62.60
71668;DHT22;59504;54.806;9.640;2023-05-10T03:18:33;10.00;62.90
71668;DHT22;59504;54.806;9.640;2023-05-10T03:20:43;10.00;62.70
71668;DHT22;59504;54.806;9.640;2023-05-10T03:22:45;9.90;63.40
71668;DHT22;59504;54.806;9.640;2023-05-10T03:24:50;10.00;62.90
71668;DHT22;59504;54.806;9.640;2023-05-10T03:26:52;9.90;62.30
71668;DHT22;59504;54.806;9.640;2023-05-10T03:28:55;9.90;62.70
71668;DHT22;59504;54.806;9.640;2023-05-10T03:30:56;9.90;62.50
71668;DHT22;59504;54.806;9.640;2023-05-10T03:32:56;9.90;62.70
71668;DHT22;59504;54.806;9.640;2023-05-10T03:34:57;9.90;62.10
71668;DHT22;59504;54.806;9.640;2023-05-10T03:36:58;9.90;62.50
71668;DHT22;59504;54.806;9.640;2023-05-10T03:38:58;9.90;61.40
71668;DHT22;59504;54.806;9.640;2023-05-10T03:40:59;9.90;61.00
71668;DHT22;59504;54.806;9.640;2023-05-10T03:43:00;9.90;60.40
71668;DHT22;59504;54.806;9.640;2023-05-10T03:45:00;9.80;61.00
71668;DHT22;59504;54.806;9.640;2023-05-10T03:47:01;9.90;60.60
71668;DHT22;59504;54.806;9.640;2023-05-10T03:49:02;9.90;60.80
71668;DHT22;59504;54.806;9.640;2023-05-10T03:51:05;9.80;60.30
71668;DHT22;59504;54.806;9.640;2023-05-10T03:53:06;9.90;60.20
71668;DHT22;59504;54.806;9.640;2023-05-10T03:55:06;9.90;61.50
71668;DHT22;59504;54.806;9.640;2023-05-10T03:57:09;9.80;62.80
71668;DHT22;59504;54.806;9.640;2023-05-10T03:59:10;9.90;63.00
71668;DHT22;59504;54.806;9.640;2023-05-10T04:01:10;9.90;63.50
71668;DHT22;59504;54.806;9.640;2023-05-10T04:03:17;9.90;64.00
71668;DHT22;59504;54.806;9.640;2023-05-10T04:05:18;9.80;63.90
71668;DHT22;59504;54.806;9.640;2023-05-10T04:07:18;9.90;64.10
71668;DHT22;59504;54.806;9.640;2023-05-10T04:09:19;9.80;63.10
71668;DHT22;59504;54.806;9.640;2023-05-10T04:11:20;9.90;62.70
71668;DHT22;59504;54.806;9.640;2023-05-10T04:13:22;9.90;64.60
71668;DHT22;59504;54.806;9.640;2023-05-10T04:15:25;9.90;64.90
71668;DHT22;59504;54.806;9.640;2023-05-10T04:17:26;9.90;65.80
71668;DHT22;59504;54.806;9.640;2023-05-10T04:19:30;9.90;65.30
71668;DHT22;59504;54.806;9.640;2023-05-10T04:21:30;9.90;65.80
71668;DHT22;59504;54.806;9.640;2023-05-10T04:23:31;10.00;65.80
71668;DHT22;59504;54.806;9.640;2023-05-10T04:25:33;9.90;65.60
71668;DHT22;59504;54.806;9.640;2023-05-10T04:27:34;10.00;66.10
71668;DHT22;59504;54.806;9.640;2023-05-10T04:29:34;10.00;65.60
71668;DHT22;59504;54.806;9.640;2023-05-10T04:31:37;9.90;65.30
71668;DHT22;59504;54.806;9.640;2023-05-10T04:33:38;10.10;66.20
71668;DHT22;59504;54.806;9.640;2023-05-10T04:35:39;10.00;67.20
71668;DHT22;59504;54.806;9.640;2023-05-10T04:37:40;10.20;66.80
71668;DHT22;59504;54.806;9.640;2023-05-10T04:39:41;10.10;67.00
71668;DHT22;59504;54.806;9.640;2023-05-10T04:42:03;10.20;66.40
71668;DHT22;59504;54.806;9.640;2023-05-10T04:44:05;10.10;68.00
71668;DHT22;59504;54.806;9.640;2023-05-10T04:46:07;10.20;68.40
71668;DHT22;59504;54.806;9.640;2023-05-10T04:48:10;10.20;68.40
71668;DHT22;59504;54.806;9.640;2023-05-10T04:50:18;10.20;68.10
71668;DHT22;59504;54.806;9.640;2023-05-10T04:52:21;10.30;68.70
71668;DHT22;59504;54.806;9.640;2023-05-10T04:54:22;10.30;68.70
71668;DHT22;59504;54.806;9.640;2023-05-10T04:56:22;10.30;68.70
71668;DHT22;59504;54.806;9.640;2023-05-10T04:58:23;10.40;68.80
71668;DHT22;59504;54.806;9.640;2023-05-10T05:00:24;10.40;68.80
71668;DHT22;59504;54.806;9.640;2023-05-10T05:02:25;10.40;68.70
71668;DHT22;59504;54.806;9.640;2023-05-10T05:04:29;10.50;68.80
71668;DHT22;59504;54.806;9.640;2023-05-10T05:06:52;10.50;68.50
71668;DHT22;59504;54.806;9.640;2023-05-10T05:09:12;10.50;68.30
71668;DHT22;59504;54.806;9.640;2023-05-10T05:11:33;10.60;68.20
71668;DHT22;59504;54.806;9.640;2023-05-10T05:13:53;10.70;68.40
71668;DHT22;59504;54.806;9.640;2023-05-10T05:16:14;10.80;68.00
71668;DHT22;59504;54.806;9.640;2023-05-10T05:18:35;10.80;68.10
71668;DHT22;59504;54.806;9.640;2023-05-10T05:20:35;10.90;68.00
71668;DHT22;59504;54.806;9.640;2023-05-10T05:22:36;10.90;68.50
71668;DHT22;59504;54.806;9.640;2023-05-10T05:24:37;11.00;67.90
71668;DHT22;59504;54.806;9.640;2023-05-10T05:26:41;11.00;67.40
71668;DHT22;59504;54.806;9.640;2023-05-10T05:28:41;11.00;67.90
71668;DHT22;59504;54.806;9.640;2023-05-10T05:30:42;11.10;67.60
71668;DHT22;59504;54.806;9.640;2023-05-10T05:32:43;11.20;66.90
71668;DHT22;59504;54.806;9.640;2023-05-10T05:34:44;11.30;66.60
71668;DHT22;59504;54.806;9.640;2023-05-10T05:36:47;11.30;66.50
71668;DHT22;59504;54.806;9.640;2023-05-10T05:38:48;11.30;65.90
71668;DHT22;59504;54.806;9.640;2023-05-10T05:40:49;11.40;65.80
71668;DHT22;59504;54.806;9.640;2023-05-10T05:42:49;11.50;65.60
71668;DHT22;59504;54.806;9.640;2023-05-10T05:44:50;11.50;65.10
71668;DHT22;59504;54.806;9.640;2023-05-10T05:46:51;11.60;65.20
71668;DHT22;59504;54.806;9.640;2023-05-10T05:48:52;11.70;64.80
71668;DHT22;59504;54.806;9.640;2023-05-10T05:50:55;11.70;64.30
71668;DHT22;59504;54.806;9.640;2023-05-10T05:52:59;11.80;63.90
71668;DHT22;59504;54.806;9.640;2023-05-10T05:55:00;11.90;63.80
71668;DHT22;59504;54.806;9.640;2023-05-10T05:57:08;11.90;63.70
71668;DHT22;59504;54.806;9.640;2023-05-10T05:59:24;11.90;63.40
71668;DHT22;59504;54.806;9.640;2023-05-10T06:01:27;12.00;63.60
71668;DHT22;59504;54.806;9.640;2023-05-10T06:03:28;12.10;63.20
71668;DHT22;59504;54.806;9.640;2023-05-10T06:05:29;12.20;63.10
71668;DHT22;59504;54.806;9.640;2023-05-10T06:07:29;12.20;63.00
71668;DHT22;59504;54.806;9.640;2023-05-10T06:09:30;12.20;62.70
71668;DHT22;59504;54.806;9.640;2023-05-10T06:11:30;12.30;62.90
71668;DHT22;59504;54.806;9.640;2023-05-10T06:13:32;12.40;62.60
71668;DHT22;59504;54.806;9.640;2023-05-10T06:15:33;12.40;62.50
71668;DHT22;59504;54.806;9.640;2023-05-10T06:17:35;12.40;62.20
71668;DHT22;59504;54.806;9.640;2023-05-10T06:19:35;12.50;62.00
71668;DHT22;59504;54.806;9.640;2023-05-10T06:21:42;12.50;62.30
71668;DHT22;59504;54.806;9.640;2023-05-10T06:23:45;12.70;62.30
71668;DHT22;59504;54.806;9.640;2023-05-10T06:25:46;12.70;62.30
71668;DHT22;59504;54.806;9.640;2023-05-10T06:27:47;12.80;62.20
71668;DHT22;59504;54.806;9.640;2023-05-10T06:29:50;12.80;62.00
71668;DHT22;59504;54.806;9.640;2023-05-10T06:31:50;12.90;62.00
71668;DHT22;59504;54.806;9.640;2023-05-10T06:33:51;13.00;61.70
71668;DHT22;59504;54.806;9.640;2023-05-10T06:35:52;13.00;61.50
71668;DHT22;59504;54.806;9.640;2023-05-10T06:37:53;13.20;61.60
71668;DHT22;59504;54.806;9.640;2023-05-10T06:39:56;13.30;61.50
71668;DHT22;59504;54.806;9.640;2023-05-10T06:41:59;13.30;61.20
71668;DHT22;59504;54.806;9.640;2023-05-10T06:44:00;13.40;61.00
71668;DHT22;59504;54.806;9.640;2023-05-10T06:46:00;13.40;60.10
71668;DHT22;59504;54.806;9.640;2023-05-10T06:48:01;13.50;59.60
71668;DHT22;59504;54.806;9.640;2023-05-10T06:50:02;13.60;59.70
71668;DHT22;59504;54.806;9.640;2023-05-10T06:52:02;13.70;59.50
71668;DHT22;59504;54.806;9.640;2023-05-10T06:54:09;13.70;59.50
71668;DHT22;59504;54.806;9.640;2023-05-10T06:56:09;13.90;59.60
71668;DHT22;59504;54.806;9.640;2023-05-10T06:58:10;13.90;59.60
71668;DHT22;59504;54.806;9.640;2023-05-10T07:00:13;14.00;59.50
71668;DHT22;59504;54.806;9.640;2023-05-10T07:02:14;14.00;59.40
71668;DHT22;59504;54.806;9.640;2023-05-10T07:04:15;14.10;59.20
71668;DHT22;59504;54.806;9.640;2023-05-10T07:06:36;14.10;60.00
71668;DHT22;59504;54.806;9.640;2023-05-10T07:08:56;14.30;59.00
71668;DHT22;59504;54.806;9.640;2023-05-10T07:11:17;14.30;57.70
71668;DHT22;59504;54.806;9.640;2023-05-10T07:13:37;14.30;57.00
71668;DHT22;59504;54.806;9.640;2023-05-10T07:16:01;14.40;57.60
71668;DHT22;59504;54.806;9.640;2023-05-10T07:18:22;14.50;57.90
71668;DHT22;59504;54.806;9.640;2023-05-10T07:20:43;14.50;58.20
71668;DHT22;59504;54.806;9.640;2023-05-10T07:23:06;14.70;58.10
71668;DHT22;59504;54.806;9.640;2023-05-10T07:25:30;14.70;56.80
71668;DHT22;59504;54.806;9.640;2023-05-10T07:27:53;14.80;57.20
71668;DHT22;59504;54.806;9.640;2023-05-10T07:29:54;14.80;56.90
71668;DHT22;59504;54.806;9.640;2023-05-10T07:31:55;14.90;56.30
71668;DHT22;59504;54.806;9.640;2023-05-10T07:33:56;14.90;56.70
71668;DHT22;59504;54.806;9.640;2023-05-10T07:35:59;15.00;56.80
71668;DHT22;59504;54.806;9.640;2023-05-10T07:38:03;15.00;56.80
71668;DHT22;59504;54.806;9.640;2023-05-10T07:40:04;15.10;57.00
71668;DHT22;59504;54.806;9.640;2023-05-10T07:42:04;15.20;56.80
71668;DHT22;59504;54.806;9.640;2023-05-10T07:44:06;15.20;56.50
71668;DHT22;59504;54.806;9.640;2023-05-10T07:46:06;15.30;56.70
71668;DHT22;59504;54.806;9.640;2023-05-10T07:48:07;15.30;56.70
71668;DHT22;59504;54.806;9.640;2023-05-10T07:50:08;15.50;56.80
71668;DHT22;59504;54.806;9.640;2023-05-10T07:52:09;15.50;56.60
71668;DHT22;59504;54.806;9.640;2023-05-10T07:54:09;15.50;55.80
71668;DHT22;59504;54.806;9.640;2023-05-10T07:58:30;15.60;55.00
71668;DHT22;59504;54.806;9.640;2023-05-10T08:00:31;15.70;55.30
71668;DHT22;59504;54.806;9.640;2023-05-10T08:02:32;15.60;55.30
71668;DHT22;59504;54.806;9.640;2023-05-10T08:04:32;15.70;55.30
71668;DHT22;59504;54.806;9.640;2023-05-10T08:06:33;15.70;55.20
71668;DHT22;59504;54.806;9.640;2023-05-10T08:08:34;15.70;54.30
71668;DHT22;59504;54.806;9.640;2023-05-10T08:10:34;15.70;54.00
71668;DHT22;59504;54.806;9.640;2023-05-10T08:12:35;15.60;52.90
71668;DHT22;59504;54.806;9.640;2023-05-10T08:14:36;15.70;53.80
71668;DHT22;59504;54.806;9.640;2023-05-10T08:16:37;15.60;53.90
71668;DHT22;59504;54.806;9.640;2023-05-10T08:18:37;15.70;54.00
71668;DHT22;59504;54.806;9.640;2023-05-10T08:20:38;15.60;54.60
71668;DHT22;59504;54.806;9.640;2023-05-10T08:22:38;15.70;54.20
71668;DHT22;59504;54.806;9.640;2023-05-10T08:24:39;15.70;54.50
71668;DHT22;59504;54.806;9.640;2023-05-10T08:26:42;15.70;53.70
71668;DHT22;59504;54.806;9.640;2023-05-10T08:28:42;15.80;54.40
71668;DHT22;59504;54.806;9.640;2023-05-10T08:30:43;15.80;54.70
71668;DHT22;59504;54.806;9.640;2023-05-10T08:32:44;15.80;52.80
71668;DHT22;59504;54.806;9.640;2023-05-10T08:34:47;15.90;53.80
71668;DHT22;59504;54.806;9.640;2023-05-10T08:36:51;15.90;54.00
71668;DHT22;59504;54.806;9.640;2023-05-10T08:38:52;16.00;54.20
71668;DHT22;59504;54.806;9.640;2023-05-10T08:40:53;15.90;52.60
71668;DHT22;59504;54.806;9.640;2023-05-10T08:43:06;15.90;53.30
71668;DHT22;59504;54.806;9.640;2023-05-10T08:45:10;15.90;53.00
71668;DHT22;59504;54.806;9.640;2023-05-10T08:47:12;16.00;53.60
71668;DHT22;59504;54.806;9.640;2023-05-10T08:49:14;16.00;53.80
71668;DHT22;59504;54.806;9.640;2023-05-10T08:51:18;16.10;53.90
71668;DHT22;59504;54.806;9.640;2023-05-10T08:53:19;16.20;54.10
71668;DHT22;59504;54.806;9.640;2023-05-10T08:55:20;16.20;53.00
71668;DHT22;59504;54.806;9.640;2023-05-10T08:57:27;16.30;53.60
71668;DHT22;59504;54.806;9.640;2023-05-10T08:59:35;16.20;52.00
71668;DHT22;59504;54.806;9.640;2023-05-10T09:01:39;16.30;52.90
71668;DHT22;59504;54.806;9.640;2023-05-10T09:03:40;16.40;52.80
71668;DHT22;59504;54.806;9.640;2023-05-10T09:05:45;16.40;52.80
71668;DHT22;59504;54.806;9.640;2023-05-10T09:07:46;16.40;53.20
71668;DHT22;59504;54.806;9.640;2023-05-10T09:09:46;16.50;53.60
71668;DHT22;59504;54.806;9.640;2023-05-10T09:11:47;16.50;52.50
71668;DHT22;59504;54.806;9.640;2023-05-10T09:13:51;16.60;53.30
71668;DHT22;59504;54.806;9.640;2023-05-10T09:15:55;16.60;52.70
71668;DHT22;59504;54.806;9.640;2023-05-10T09:18:01;16.70;53.10
71668;DHT22;59504;54.806;9.640;2023-05-10T09:20:16;16.70;51.60
71668;DHT22;59504;54.806;9.640;2023-05-10T09:22:26;16.80;52.30
71668;DHT22;59504;54.806;9.640;2023-05-10T09:24:46;16.80;52.70
71668;DHT22;59504;54.806;9.640;2023-05-10T09:27:07;16.90;53.20
71668;DHT22;59504;54.806;9.640;2023-05-10T09:29:38;17.00;52.90
71668;DHT22;59504;54.806;9.640;2023-05-10T09:31:59;17.00;52.00
71668;DHT22;59504;54.806;9.640;2023-05-10T09:34:20;17.10;51.40
71668;DHT22;59504;54.806;9.640;2023-05-10T09:36:54;17.20;52.70
71668;DHT22;59504;54.806;9.640;2023-05-10T09:39:18;17.20;52.30
71668;DHT22;59504;54.806;9.640;2023-05-10T09:41:35;17.30;52.00
71668;DHT22;59504;54.806;9.640;2023-05-10T09:43:56;17.30;52.50
71668;DHT22;59504;54.806;9.640;2023-05-10T09:46:16;17.40;52.20
71668;DHT22;59504;54.806;9.640;2023-05-10T09:48:44;17.40;51.60
71668;DHT22;59504;54.806;9.640;2023-05-10T09:51:05;17.50;51.90
71668;DHT22;59504;54.806;9.640;2023-05-10T09:53:25;17.60;50.90
71668;DHT22;59504;54.806;9.640;2023-05-10T09:55:46;17.60;51.10
71668;DHT22;59504;54.806;9.640;2023-05-10T09:58:07;17.60;51.60
71668;DHT22;59504;54.806;9.640;2023-05-10T10:00:34;17.60;50.70
71668;DHT22;59504;54.806;9.640;2023-05-10T10:02:35;17.60;50.80
71668;DHT22;59504;54.806;9.640;2023-05-10T10:04:38;17.60;51.60
71668;DHT22;59504;54.806;9.640;2023-05-10T10:06:39;17.50;51.40
71668;DHT22;59504;54.806;9.640;2023-05-10T10:08:40;17.40;51.10
71668;DHT22;59504;54.806;9.640;2023-05-10T10:10:41;17.50;51.30
71668;DHT22;59504;54.806;9.640;2023-05-10T10:12:42;17.30;51.70
71668;DHT22;59504;54.806;9.640;2023-05-10T10:14:43;17.40;51.80
71668;DHT22;59504;54.806;9.640;2023-05-10T10:16:44;17.30;51.10
71668;DHT22;59504;54.806;9.640;2023-05-10T10:18:45;17.20;50.60
71668;DHT22;59504;54.806;9.640;2023-05-10T10:20:45;17.20;51.10
71668;DHT22;59504;54.806;9.640;2023-05-10T10:22:46;17.00;52.30
71668;DHT22;59504;54.806;9.640;2023-05-10T10:24:47;16.90;51.40
71668;DHT22;59504;54.806;9.640;2023-05-10T10:26:48;16.90;51.90
71668;DHT22;59504;54.806;9.640;2023-05-10T10:29:05;16.70;52.40
71668;DHT22;59504;54.806;9.640;2023-05-10T10:31:15;16.80;52.90
71668;DHT22;59504;54.806;9.640;2023-05-10T10:35:24;16.80;52.10
71668;DHT22;59504;54.806;9.640;2023-05-10T10:37:47;16.70;51.90
71668;DHT22;59504;54.806;9.640;2023-05-10T10:39:48;16.70;52.00
71668;DHT22;59504;54.806;9.640;2023-05-10T10:41:50;16.70;52.50
71668;DHT22;59504;54.806;9.640;2023-05-10T10:44:09;16.90;52.60
71668;DHT22;59504;54.806;9.640;2023-05-10T10:46:12;16.90;52.60
71668;DHT22;59504;54.806;9.640;2023-05-10T10:48:23;16.90;52.60
71668;DHT22;59504;54.806;9.640;2023-05-10T10:50:23;17.00;52.90
71668;DHT22;59504;54.806;9.640;2023-05-10T10:52:25;17.00;52.60
71668;DHT22;59504;54.806;9.640;2023-05-10T10:54:30;17.10;52.80
71668;DHT22;59504;54.806;9.640;2023-05-10T10:56:32;17.10;52.30
71668;DHT22;59504;54.806;9.640;2023-05-10T10:58:33;17.20;52.50
71668;DHT22;59504;54.806;9.640;2023-05-10T11:00:37;17.20;52.30
71668;DHT22;59504;54.806;9.640;2023-05-10T11:04:42;17.30;52.40
71668;DHT22;59504;54.806;9.640;2023-05-10T11:06:43;17.20;52.10
71668;DHT22;59504;54.806;9.640;2023-05-10T11:08:44;17.10;51.50
71668;DHT22;59504;54.806;9.640;2023-05-10T11:10:49;17.00;51.60
71668;DHT22;59504;54.806;9.640;2023-05-10T11:12:53;17.10;52.20
71668;DHT22;59504;54.806;9.640;2023-05-10T11:14:56;17.00;52.40
71668;DHT22;59504;54.806;9.640;2023-05-10T11:16:57;17.00;52.50
71668;DHT22;59504;54.806;9.640;2023-05-10T11:19:07;17.00;52.90
71668;DHT22;59504;54.806;9.640;2023-05-10T11:21:08;17.00;52.50
71668;DHT22;59504;54.806;9.640;2023-05-10T11:23:12;17.10;52.70
71668;DHT22;59504;54.806;9.640;2023-05-10T11:25:17;17.10;52.80
71668;DHT22;59504;54.806;9.640;2023-05-10T11:27:38;17.00;52.30
71668;DHT22;59504;54.806;9.640;2023-05-10T11:30:01;17.00;53.00
71668;DHT22;59504;54.806;9.640;2023-05-10T11:32:01;17.00;52.80
71668;DHT22;59504;54.806;9.640;2023-05-10T11:34:02;17.00;52.90
71668;DHT22;59504;54.806;9.640;2023-05-10T11:36:10;17.00;52.80
71668;DHT22;59504;54.806;9.640;2023-05-10T11:38:34;17.00;52.50
71668;DHT22;59504;54.806;9.640;2023-05-10T11:40:54;17.00;52.50
71668;DHT22;59504;54.806;9.640;2023-05-10T11:43:15;17.00;52.40
71668;DHT22;59504;54.806;9.640;2023-05-10T11:45:35;17.00;52.20
71668;DHT22;59504;54.806;9.640;2023-05-10T11:47:57;16.90;51.70
71668;DHT22;59504;54.806;9.640;2023-05-10T11:50:17;16.90;51.60
71668;DHT22;59504;54.806;9.640;2023-05-10T11:52:38;16.80;51.90
71668;DHT22;59504;54.806;9.640;2023-05-10T11:54:59;16.80;52.60
71668;DHT22;59504;54.806;9.640;2023-05-10T11:57:20;16.70;52.40
71668;DHT22;59504;54.806;9.640;2023-05-10T11:59:40;16.70;52.50
71668;DHT22;59504;54.806;9.640;2023-05-10T12:02:01;16.60;52.70
71668;DHT22;59504;54.806;9.640;2023-05-10T12:04:22;16.60;52.70
71668;DHT22;59504;54.806;9.640;2023-05-10T12:06:43;16.50;52.70
71668;DHT22;59504;54.806;9.640;2023-05-10T12:09:07;16.50;52.70
71668;DHT22;59504;54.806;9.640;2023-05-10T12:11:09;16.50;52.70
71668;DHT22;59504;54.806;9.640;2023-05-10T12:13:18;16.40;53.10
71668;DHT22;59504;54.806;9.640;2023-05-10T12:15:20;16.40;53.20
71668;DHT22;59504;54.806;9.640;2023-05-10T12:17:20;16.30;53.80
71668;DHT22;59504;54.806;9.640;2023-05-10T12:19:21;16.30;54.10
71668;DHT22;59504;54.806;9.640;2023-05-10T12:21:22;16.20;54.40
71668;DHT22;59504;54.806;9.640;2023-05-10T12:23:25;16.10;54.60
71668;DHT22;59504;54.806;9.640;2023-05-10T12:25:29;16.10;55.00
71668;DHT22;59504;54.806;9.640;2023-05-10T12:27:33;16.10;55.30
71668;DHT22;59504;54.806;9.640;2023-05-10T12:29:43;16.00;55.20
71668;DHT22;59504;54.806;9.640;2023-05-10T12:31:50;16.00;55.70
71668;DHT22;59504;54.806;9.640;2023-05-10T12:33:57;15.90;55.90
71668;DHT22;59504;54.806;9.640;2023-05-10T12:35:58;15.90;56.00
71668;DHT22;59504;54.806;9.640;2023-05-10T12:38:38;15.80;56.30
71668;DHT22;59504;54.806;9.640;2023-05-10T12:40:59;15.90;55.80
71668;DHT22;59504;54.806;9.640;2023-05-10T12:43:20;15.90;55.80
71668;DHT22;59504;54.806;9.640;2023-05-10T12:45:41;15.80;56.80
71668;DHT22;59504;54.806;9.640;2023-05-10T12:48:01;15.80;57.10
71668;DHT22;59504;54.806;9.640;2023-05-10T12:50:22;15.80;56.80
71668;DHT22;59504;54.806;9.640;2023-05-10T12:52:24;15.80;57.50
71668;DHT22;59504;54.806;9.640;2023-05-10T12:54:46;15.70;57.80
71668;DHT22;59504;54.806;9.640;2023-05-10T12:57:07;15.70;57.90
71668;DHT22;59504;54.806;9.640;2023-05-10T12:59:27;15.60;58.10
71668;DHT22;59504;54.806;9.640;2023-05-10T13:01:48;15.60;57.90
71668;DHT22;59504;54.806;9.640;2023-05-10T13:04:08;15.60;57.80
71668;DHT22;59504;54.806;9.640;2023-05-10T13:06:29;15.60;57.90
71668;DHT22;59504;54.806;9.640;2023-05-10T13:08:50;15.60;57.80
71668;DHT22;59504;54.806;9.640;2023-05-10T13:11:18;15.60;57.50
71668;DHT22;59504;54.806;9.640;2023-05-10T13:13:40;15.60;59.10
71668;DHT22;59504;54.806;9.640;2023-05-10T13:16:00;15.70;58.20
71668;DHT22;59504;54.806;9.640;2023-05-10T13:18:03;15.70;57.70
71668;DHT22;59504;54.806;9.640;2023-05-10T13:20:06;15.70;57.60
71668;DHT22;59504;54.806;9.640;2023-05-10T13:22:13;15.70;58.60
71668;DHT22;59504;54.806;9.640;2023-05-10T13:24:16;15.70;58.40
71668;DHT22;59504;54.806;9.640;2023-05-10T13:26:17;15.70;57.70
71668;DHT22;59504;54.806;9.640;2023-05-10T13:28:18;15.70;57.90
71668;DHT22;59504;54.806;9.640;2023-05-10T13:30:19;15.70;57.60
71668;DHT22;59504;54.806;9.640;2023-05-10T13:32:20;15.80;57.50
71668;DHT22;59504;54.806;9.640;2023-05-10T13:34:21;15.80;57.50
71668;DHT22;59504;54.806;9.640;2023-05-10T13:36:25;15.90;57.60
71668;DHT22;59504;54.806;9.640;2023-05-10T13:38:25;15.80;57.60
71668;DHT22;59504;54.806;9.640;2023-05-10T13:40:26;15.80;57.60
71668;DHT22;59504;54.806;9.640;2023-05-10T13:42:30;15.80;57.70
71668;DHT22;59504;54.806;9.640;2023-05-10T13:44:35;15.90;57.80
71668;DHT22;59504;54.806;9.640;2023-05-10T13:46:56;15.90;57.90
71668;DHT22;59504;54.806;9.640;2023-05-10T13:48:59;15.90;57.90
71668;DHT22;59504;54.806;9.640;2023-05-10T13:51:20;15.90;58.30
71668;DHT22;59504;54.806;9.640;2023-05-10T13:53:41;15.90;58.50
71668;DHT22;59504;54.806;9.640;2023-05-10T13:56:04;15.90;58.30